Time;durP1;ratioP1;P1;durP2;ratioP2;P2;SDS_P1;SDS_P2;PMS_P1;PMS_P2;Temp;Humidity;BMP_temperature;BMP_pressure;BME280_temperature;BME280_humidity;BME280_pressure;Samples;Min_cycle;Max_cycle;Signal;HPM_P1;HPM_P2
2023/10/29 00:01:26;;;;;;;1.63;1.20;;;;;;;19.20;100.00;98859.00;5060792;28;20104;-47
2023/10/29 00:03:52;;;;;;;1.63;1.20;;;;;;;19.19;100.00;98852.72;5078187;28;20161;-45
2023/10/29 00:06:17;;;;;;;2.25;1.10;;;;;;;19.18;100.00;98840.13;5078236;28;20127;-47
2023/10/29 00:08:43;;;;;;;1.50;1.17;;;;;;;19.19;100.00;98838.16;5077108;28;20024;-48
2023/10/29 00:11:11;;;;;;;1.80;1.20;;;;;;;19.18;100.00;98839.34;5079191;28;20165;-52
2023/10/29 00:13:36;;;;;;;2.58;1.30;;;;;;;19.19;100.00;98846.41;5060880;28;20035;-48
2023/10/29 00:16:02;;;;;;;2.33;1.30;;;;;;;19.19;100.00;98838.16;5078188;28;20036;-47
2023/10/29 00:18:28;;;;;;;1.25;1.10;;;;;;;19.19;100.00;98822.50;5060763;28;20594;-45
2023/10/29 00:20:53;;;;;;;2.20;1.30;;;;;;;19.20;100.00;98820.56;5078898;28;20023;-54
2023/10/29 00:23:18;;;;;;;3.60;1.30;;;;;;;19.20;100.00;98824.13;5078792;28;20077;-52
2023/10/29 00:25:44;;;;;;;3.67;1.25;;;;;;;19.20;100.00;98817.81;5080546;28;20035;-53
2023/10/29 00:28:11;;;;;;;1.85;1.20;;;;;;;19.19;100.00;98814.28;5061477;28;20489;-46
2023/10/29 00:30:37;;;;;;;2.88;1.25;;;;;;;19.20;100.00;98815.06;5078474;28;20688;-53
2023/10/29 00:33:02;;;;;;;5.47;1.30;;;;;;;19.20;100.00;98812.31;5078608;28;20035;-48
2023/10/29 00:35:28;;;;;;;2.83;1.30;;;;;;;19.20;100.00;98802.16;5059583;28;20824;-47
2023/10/29 00:37:53;;;;;;;1.92;1.20;;;;;;;19.20;100.00;98809.56;5079104;28;20028;-52
2023/10/29 00:40:19;;;;;;;3.92;1.20;;;;;;;19.20;100.00;98804.09;5079307;28;20032;-51
2023/10/29 00:42:44;;;;;;;2.40;1.35;;;;;;;19.20;100.00;98806.84;5078232;28;20591;-53
2023/10/29 00:45:09;;;;;;;2.83;1.50;;;;;;;19.21;100.00;98808.44;5062180;28;20255;-51
2023/10/29 00:47:36;;;;;;;3.08;1.40;;;;;;;19.20;100.00;98806.84;5059342;28;20469;-51
2023/10/29 00:50:01;;;;;;;2.10;1.30;;;;;;;19.21;100.00;98805.69;5044188;28;20656;-47
2023/10/29 00:52:27;;;;;;;2.22;1.35;;;;;;;19.21;100.00;98800.19;5076778;28;20035;-46
2023/10/29 00:54:53;;;;;;;2.03;1.27;;;;;;;19.20;100.00;98799.41;5076937;28;20067;-49
2023/10/29 00:57:19;;;;;;;2.50;1.20;;;;;;;19.21;100.00;98797.47;5059471;28;20020;-51
2023/10/29 00:59:44;;;;;;;2.55;1.30;;;;;;;19.20;100.00;98793.09;5061632;28;20035;-46
2023/10/29 01:02:09;;;;;;;2.08;1.20;;;;;;;19.20;100.00;98804.91;5058981;28;20058;-47
2023/10/29 01:04:36;;;;;;;2.88;1.35;;;;;;;19.19;100.00;98792.31;5075968;28;20042;-48
2023/10/29 01:07:02;;;;;;;1.38;1.10;;;;;;;19.20;100.00;98787.59;5042605;28;20642;-48
2023/10/29 01:09:27;;;;;;;1.83;1.20;;;;;;;19.20;100.00;98785.69;5075825;28;20346;-48
2023/10/29 01:11:52;;;;;;;3.88;1.23;;;;;;;19.20;100.00;98793.91;5077616;28;20046;-46
2023/10/29 01:14:18;;;;;;;2.05;1.30;;;;;;;19.21;100.00;98786.47;5075246;28;20118;-48
2023/10/29 01:16:43;;;;;;;2.08;1.20;;;;;;;19.20;100.00;98785.69;5074510;28;20173;-47
2023/10/29 01:19:08;;;;;;;2.88;1.27;;;;;;;19.20;100.00;98784.88;5076245;28;20019;-47
2023/10/29 01:21:34;;;;;;;1.60;1.13;;;;;;;19.19;100.00;98781.31;5075524;28;20066;-46
2023/10/29 01:24:00;;;;;;;3.42;1.40;;;;;;;19.19;100.00;98780.50;5076127;28;20084;-46
2023/10/29 01:26:26;;;;;;;2.53;1.20;;;;;;;19.21;100.00;98767.25;5074767;28;20027;-46
2023/10/29 01:28:51;;;;;;;1.88;1.20;;;;;;;19.19;100.00;98756.59;5076284;28;20605;-47
2023/10/29 01:31:16;;;;;;;1.85;1.30;;;;;;;19.20;100.00;98762.91;5075818;28;20490;-53
2023/10/29 01:33:42;;;;;;;2.85;1.50;;;;;;;19.20;100.00;98743.66;5059246;28;20036;-50
2023/10/29 01:36:07;;;;;;;2.20;1.40;;;;;;;19.19;100.00;98751.13;5075398;28;20039;-45
2023/10/29 01:38:33;;;;;;;4.35;1.30;;;;;;;19.18;100.00;98749.50;5076483;28;20495;-46
2023/10/29 01:40:59;;;;;;;4.93;1.30;;;;;;;19.18;100.00;98735.78;5075300;28;20031;-47
2023/10/29 01:43:24;;;;;;;1.75;1.10;;;;;;;19.18;100.00;98735.78;5060743;28;20058;-50
2023/10/29 01:45:49;;;;;;;2.60;1.33;;;;;;;19.18;100.00;98732.25;5074807;28;20036;-46
2023/10/29 01:48:16;;;;;;;2.72;1.42;;;;;;;19.17;100.00;98733.38;5059953;28;20103;-54
2023/10/29 01:50:41;;;;;;;1.02;0.95;;;;;;;19.16;100.00;98732.56;5058084;28;20118;-47
2023/10/29 01:53:07;;;;;;;2.28;1.20;;;;;;;19.17;100.00;98736.13;5059816;28;20040;-46
2023/10/29 01:55:36;;;;;;;1.38;1.10;;;;;;;19.16;100.00;98737.25;5073924;28;20027;-47
2023/10/29 01:58:02;;;;;;;1.83;1.42;;;;;;;19.17;100.00;98744.34;5074508;28;20023;-48
2023/10/29 02:00:27;;;;;;;1.88;1.30;;;;;;;19.16;100.00;98737.25;5055928;28;20043;-50
2023/10/29 02:02:53;;;;;;;3.35;1.52;;;;;;;19.16;100.00;98745.50;5075607;28;20036;-50
2023/10/29 02:05:18;;;;;;;2.35;1.20;;;;;;;19.16;100.00;98751.78;5077205;28;20096;-53
2023/10/29 02:07:44;;;;;;;2.58;1.10;;;;;;;19.17;100.00;98775.34;5075646;28;20146;-48
2023/10/29 02:10:09;;;;;;;4.75;1.13;;;;;;;19.17;100.00;98769.06;5057819;28;20523;-53
2023/10/29 02:12:35;;;;;;;2.88;1.58;;;;;;;19.15;100.00;98766.63;5075847;28;20403;-53
2023/10/29 02:15:00;;;;;;;2.35;1.40;;;;;;;19.16;100.00;98742.75;5058531;28;20027;-52
2023/10/29 02:17:27;;;;;;;1.98;1.33;;;;;;;19.15;100.00;98738.38;5073693;28;20035;-46
2023/10/29 02:19:55;;;;;;;2.05;1.15;;;;;;;19.14;100.00;98715.63;5058885;28;20028;-46
2023/10/29 02:22:21;;;;;;;3.35;1.40;;;;;;;19.15;100.00;98713.69;5057689;28;21051;-46
2023/10/29 02:24:46;;;;;;;1.92;1.08;;;;;;;19.13;100.00;98699.47;5074919;28;20085;-48
2023/10/29 02:27:12;;;;;;;2.20;1.20;;;;;;;19.13;100.00;98715.94;5075529;28;20036;-54
2023/10/29 02:29:37;;;;;;;1.83;1.05;;;;;;;19.13;100.00;98735.97;5073968;28;20150;-55
2023/10/29 02:32:03;;;;;;;3.15;1.15;;;;;;;19.12;100.00;98756.34;5057755;28;20563;-50
2023/10/29 02:34:28;;;;;;;2.13;1.10;;;;;;;19.11;100.00;98745.69;5076250;28;20520;-50
2023/10/29 02:36:53;;;;;;;2.22;1.23;;;;;;;19.10;100.00;98747.63;5076566;28;20028;-52
2023/10/29 02:39:19;;;;;;;1.52;1.10;;;;;;;19.09;100.00;98743.25;5074961;28;20035;-54
2023/10/29 02:41:44;;;;;;;4.35;0.90;;;;;;;19.09;100.00;98743.25;5076252;28;20126;-51
2023/10/29 02:44:09;;;;;;;1.38;0.90;;;;;;;19.08;100.00;98741.69;5076302;28;20055;-53
2023/10/29 02:46:36;;;;;;;1.75;1.08;;;;;;;19.07;100.00;98743.59;5076797;28;20063;-53
2023/10/29 02:49:02;;;;;;;1.63;0.90;;;;;;;19.06;100.00;98743.94;5058071;28;20047;-51
2023/10/29 02:51:27;;;;;;;3.50;1.10;;;;;;;19.06;100.00;98746.69;5057514;28;20062;-52
2023/10/29 02:53:52;;;;;;;2.03;1.02;;;;;;;19.04;100.00;98754.44;5060156;28;20551;-52
2023/10/29 02:56:18;;;;;;;1.30;0.90;;;;;;;19.04;100.00;98749.78;5076736;28;20036;-52
2023/10/29 02:58:43;;;;;;;1.83;1.10;;;;;;;19.04;100.00;98755.28;5078864;28;20763;-51
2023/10/29 03:01:09;;;;;;;3.63;0.90;;;;;;;19.04;100.00;98744.28;5077157;28;20032;-49
2023/10/29 03:03:35;;;;;;;1.50;1.05;;;;;;;19.03;100.00;98750.09;5059054;28;20125;-53
2023/10/29 03:06:05;;;;;;;2.60;0.98;;;;;;;19.02;100.00;98745.78;5076631;28;20050;-48
2023/10/29 03:08:31;;;;;;;2.35;0.90;;;;;;;19.02;100.00;98748.50;5076011;28;20042;-54
2023/10/29 03:10:56;;;;;;;1.60;1.00;;;;;;;19.01;100.00;98744.94;5075403;28;20044;-46
2023/10/29 03:13:22;;;;;;;2.03;1.10;;;;;;;19.01;100.00;98749.66;5075369;28;20388;-47
2023/10/29 03:15:47;;;;;;;2.15;1.10;;;;;;;19.00;100.00;98746.06;5075628;28;20068;-53
2023/10/29 03:18:13;;;;;;;0.95;0.80;;;;;;;19.00;100.00;98754.31;5076049;28;20625;-48
2023/10/29 03:20:39;;;;;;;2.17;0.90;;;;;;;18.98;100.00;98747.56;5074873;28;20027;-46
2023/10/29 03:23:05;;;;;;;2.40;1.02;;;;;;;18.99;100.00;98747.22;5076313;28;20089;-49
2023/10/29 03:25:30;;;;;;;3.50;0.75;;;;;;;18.99;100.00;98754.66;5070650;28;20446;-54
2023/10/29 03:27:56;;;;;;;3.20;0.80;;;;;;;18.96;100.00;98747.91;5074310;28;20158;-47
2023/10/29 03:30:21;;;;;;;1.45;1.13;;;;;;;18.99;100.00;98740.94;5064493;28;20332;-51
2023/10/29 03:32:47;;;;;;;1.65;1.10;;;;;;;18.97;100.00;98743.19;5048685;28;20036;-52
2023/10/29 03:35:12;;;;;;;1.10;1.00;;;;;;;18.97;100.00;98746.75;5083518;28;20081;-51
2023/10/29 03:37:38;;;;;;;1.42;1.00;;;;;;;18.96;100.00;98750.63;5065426;28;20407;-52
2023/10/29 03:40:06;;;;;;;1.27;0.90;;;;;;;18.97;100.00;98740.44;5082873;28;21857;-53
2023/10/29 03:42:31;;;;;;;1.83;1.00;;;;;;;18.97;100.00;98744.03;5074419;28;20040;-47
2023/10/29 03:44:58;;;;;;;1.58;0.90;;;;;;;18.96;100.00;98756.13;5079588;28;20078;-47
2023/10/29 03:47:23;;;;;;;2.28;1.30;;;;;;;18.95;100.00;98740.78;5062779;28;21853;-53
2023/10/29 03:49:48;;;;;;;1.70;0.90;;;;;;;18.95;100.00;98749.03;5063722;28;20090;-54
2023/10/29 03:52:14;;;;;;;2.22;0.90;;;;;;;18.95;100.00;98760.00;5080270;28;20726;-46
2023/10/29 03:54:39;;;;;;;1.23;0.98;;;;;;;18.95;100.00;98764.72;5080041;28;20032;-46
2023/10/29 03:57:05;;;;;;;1.92;1.02;;;;;;;18.93;100.00;98773.25;5061826;28;20166;-52
2023/10/29 03:59:30;;;;;;;0.82;0.77;;;;;;;18.94;100.00;98774.06;5065489;28;20798;-52
2023/10/29 04:01:55;;;;;;;4.10;1.65;;;;;;;18.95;100.00;98775.69;5081355;28;20073;-49
2023/10/29 04:04:21;;;;;;;2.08;1.13;;;;;;;18.94;100.00;98799.56;5080774;28;20567;-53
2023/10/29 04:06:46;;;;;;;5.38;1.10;;;;;;;18.94;100.00;98857.22;5078630;28;20031;-48
2023/10/29 04:09:12;;;;;;;1.80;0.95;;;;;;;18.94;100.00;98857.22;5080762;28;20081;-52
2023/10/29 04:11:37;;;;;;;6.28;1.08;;;;;;;18.92;100.00;98862.25;5078934;28;20696;-49
2023/10/29 04:14:03;;;;;;;2.45;1.13;;;;;;;18.90;100.00;98826.84;5061327;28;20035;-51
2023/10/29 04:16:28;;;;;;;2.70;1.10;;;;;;;18.89;100.00;98827.19;5077616;28;20051;-53
2023/10/29 04:18:54;;;;;;;2.20;1.00;;;;;;;18.89;100.00;98813.47;5079260;28;20248;-46
2023/10/29 04:21:19;;;;;;;2.08;0.90;;;;;;;18.90;100.00;98804.09;5078335;28;21410;-54
2023/10/29 04:23:44;;;;;;;1.30;1.00;;;;;;;18.87;100.00;98823.97;5073051;28;21804;-51
2023/10/29 04:26:10;;;;;;;1.70;0.90;;;;;;;18.85;100.00;98798.81;5077176;28;20058;-50
2023/10/29 04:28:35;;;;;;;1.42;0.80;;;;;;;18.84;100.00;98808.97;5055831;28;20031;-54
2023/10/29 04:31:01;;;;;;;3.28;1.00;;;;;;;18.82;100.00;98824.97;5059925;28;20157;-51
2023/10/29 04:33:27;;;;;;;2.28;0.90;;;;;;;18.81;100.00;98826.09;5059836;28;20085;-46
2023/10/29 04:35:53;;;;;;;3.17;0.95;;;;;;;18.80;100.00;98834.66;5043708;28;20036;-47
2023/10/29 04:38:18;;;;;;;1.33;0.80;;;;;;;18.80;100.00;98820.91;5061176;28;20558;-46
2023/10/29 04:40:44;;;;;;;2.45;0.98;;;;;;;18.79;100.00;98833.06;5078368;28;20028;-45
2023/10/29 04:43:09;;;;;;;1.63;1.00;;;;;;;18.78;100.00;98829.50;5080023;28;20456;-46
2023/10/29 04:45:35;;;;;;;1.73;0.90;;;;;;;18.77;100.00;98836.94;5078258;28;20028;-47
2023/10/29 04:48:00;;;;;;;6.32;1.17;;;;;;;18.76;100.00;98827.09;5079359;28;20051;-47
2023/10/29 04:50:26;;;;;;;3.67;1.42;;;;;;;18.76;100.00;98829.84;5077968;28;20110;-46
2023/10/29 04:52:51;;;;;;;2.65;1.00;;;;;;;18.75;100.00;98835.66;5060925;28;20043;-47
2023/10/29 04:55:17;;;;;;;2.70;1.20;;;;;;;18.74;100.00;98828.56;5077974;28;20035;-46
2023/10/29 04:57:42;;;;;;;3.85;1.48;;;;;;;18.73;100.00;98830.47;5079702;28;20400;-46
2023/10/29 05:00:08;;;;;;;3.63;1.00;;;;;;;18.73;100.00;98829.69;5043266;28;20031;-45
2023/10/29 05:02:35;;;;;;;2.10;1.00;;;;;;;18.72;100.00;98819.84;5079374;28;20370;-46
2023/10/29 05:05:01;;;;;;;1.65;0.98;;;;;;;18.71;100.00;98820.97;5058360;28;20027;-47
2023/10/29 05:07:26;;;;;;;1.63;0.90;;;;;;;18.69;100.00;98815.81;5077876;28;20748;-46
2023/10/29 05:09:52;;;;;;;4.57;1.00;;;;;;;18.69;100.00;98815.03;5078086;28;20035;-45
2023/10/29 05:12:17;;;;;;;5.03;1.30;;;;;;;18.68;100.00;98825.19;5059183;28;20036;-49
2023/10/29 05:14:42;;;;;;;2.97;1.10;;;;;;;18.67;100.00;98825.53;5077765;28;20561;-51
2023/10/29 05:17:08;;;;;;;3.35;1.10;;;;;;;18.68;100.00;98832.63;5078141;28;20042;-50
2023/10/29 05:19:33;;;;;;;4.45;1.30;;;;;;;18.66;100.00;98843.91;5078085;28;20032;-50
2023/10/29 05:21:58;;;;;;;3.30;1.30;;;;;;;18.66;100.00;98846.66;5078810;28;20512;-51
2023/10/29 05:24:24;;;;;;;2.17;1.17;;;;;;;18.65;100.00;98842.31;5076839;28;21523;-47
2023/10/29 05:26:49;;;;;;;3.50;1.38;;;;;;;18.64;100.00;98848.94;5043704;28;20549;-51
2023/10/29 05:29:16;;;;;;;2.88;1.23;;;;;;;18.63;100.00;98846.53;5077243;28;20043;-51
2023/10/29 05:31:41;;;;;;;5.00;1.27;;;;;;;18.64;100.00;98859.09;5078045;28;20032;-50
2023/10/29 05:34:07;;;;;;;4.70;1.60;;;;;;;18.63;100.00;98865.75;5078842;28;20050;-51
2023/10/29 05:36:32;;;;;;;4.00;1.30;;;;;;;18.61;100.00;98868.78;5060569;28;20032;-46
2023/10/29 05:38:58;;;;;;;3.22;1.48;;;;;;;18.60;100.00;98891.88;5059695;28;20027;-54
2023/10/29 05:41:23;;;;;;;2.95;1.17;;;;;;;18.58;100.00;98878.47;5078724;28;20031;-46
2023/10/29 05:43:48;;;;;;;3.38;1.17;;;;;;;18.57;100.00;98876.88;5077881;28;20548;-53
2023/10/29 05:46:15;;;;;;;3.97;1.45;;;;;;;18.56;100.00;98880.75;5057439;28;20039;-49
2023/10/29 05:48:41;;;;;;;3.22;1.20;;;;;;;18.56;100.00;98896.41;5039773;28;20040;-49
2023/10/29 05:51:09;;;;;;;3.45;1.40;;;;;;;18.56;100.00;98899.16;5059091;28;20144;-51
2023/10/29 05:53:34;;;;;;;4.93;1.40;;;;;;;18.54;100.00;98894.00;5056744;28;20118;-51
2023/10/29 05:55:59;;;;;;;2.10;0.90;;;;;;;18.54;100.00;98901.41;5039331;28;20407;-46
2023/10/29 05:58:25;;;;;;;3.65;1.27;;;;;;;18.51;100.00;98899.34;5039880;28;20024;-53
2023/10/29 06:00:50;;;;;;;5.93;1.30;;;;;;;18.52;100.00;98889.97;5058749;28;20036;-48
2023/10/29 06:03:16;;;;;;;3.33;1.35;;;;;;;18.50;100.00;98890.28;5054805;28;20101;-51
2023/10/29 06:05:41;;;;;;;4.93;1.48;;;;;;;18.53;100.00;98903.34;5040665;28;20036;-53
2023/10/29 06:08:07;;;;;;;5.13;1.45;;;;;;;18.58;100.00;98905.91;5039117;28;20042;-46
2023/10/29 06:10:32;;;;;;;4.55;1.48;;;;;;;18.65;100.00;98901.84;5060021;28;20032;-47
2023/10/29 06:12:59;;;;;;;3.08;1.33;;;;;;;18.73;100.00;98907.31;5057965;28;20354;-48
2023/10/29 06:15:25;;;;;;;2.92;1.20;;;;;;;18.82;100.00;98901.81;5054350;28;20055;-46
2023/10/29 06:17:50;;;;;;;3.90;1.20;;;;;;;18.92;100.00;98911.66;5048960;28;20106;-47
2023/10/29 06:20:20;;;;;;;4.55;1.40;;;;;;;19.01;100.00;98906.13;5039745;28;20048;-47
2023/10/29 06:22:47;;;;;;;4.20;1.23;;;;;;;19.10;100.00;98909.63;5024770;28;20036;-47
2023/10/29 06:25:13;;;;;;;2.42;1.58;;;;;;;19.23;100.00;98913.28;5056203;28;20111;-46
2023/10/29 06:27:38;;;;;;;4.72;1.45;;;;;;;19.35;100.00;98907.88;5057750;28;20555;-53
2023/10/29 06:30:04;;;;;;;4.93;1.40;;;;;;;19.48;100.00;98918.94;5059786;28;20586;-53
2023/10/29 06:32:30;;;;;;;3.28;1.20;;;;;;;19.61;100.00;98941.78;5059303;28;20415;-51
2023/10/29 06:34:55;;;;;;;3.72;1.38;;;;;;;19.72;99.75;98948.53;5059955;28;20036;-52
2023/10/29 06:37:20;;;;;;;4.97;1.60;;;;;;;19.83;99.29;98955.25;5059308;28;20432;-54
2023/10/29 06:39:46;;;;;;;3.10;1.30;;;;;;;19.93;99.04;98965.06;5041389;28;20036;-54
2023/10/29 06:42:11;;;;;;;2.55;1.30;;;;;;;20.06;98.24;98978.88;5059530;28;20036;-53
2023/10/29 06:44:36;;;;;;;2.78;1.30;;;;;;;20.15;98.16;98996.91;5059869;28;20032;-48
2023/10/29 06:47:03;;;;;;;4.97;1.13;;;;;;;20.26;97.18;98993.78;5032534;28;20062;-48
2023/10/29 06:49:28;;;;;;;2.97;1.40;;;;;;;20.34;96.64;99001.94;5077536;28;20028;-46
2023/10/29 06:51:54;;;;;;;2.47;1.23;;;;;;;20.45;96.44;99012.53;5076692;28;20135;-46
2023/10/29 06:54:19;;;;;;;3.38;1.30;;;;;;;20.53;95.93;99015.19;5077962;28;20419;-46
2023/10/29 06:56:44;;;;;;;2.58;1.17;;;;;;;20.58;95.32;99025.19;5060365;28;20420;-47
2023/10/29 06:59:10;;;;;;;2.85;1.30;;;;;;;20.61;95.08;99032.78;5079269;28;20042;-46
2023/10/29 07:01:35;;;;;;;2.95;1.30;;;;;;;20.61;95.11;99032.78;5062208;28;20070;-50
2023/10/29 07:04:01;;;;;;;5.70;1.70;;;;;;;20.60;94.97;99030.34;5079506;28;20508;-54
2023/10/29 07:06:26;;;;;;;2.00;1.10;;;;;;;20.58;95.00;99038.97;5079754;28;20119;-47
2023/10/29 07:08:51;;;;;;;2.60;1.30;;;;;;;20.56;95.42;99046.75;5079207;28;20031;-46
2023/10/29 07:11:19;;;;;;;3.15;1.30;;;;;;;20.53;95.69;99050.19;5078749;28;20046;-47
2023/10/29 07:13:44;;;;;;;4.40;1.60;;;;;;;20.49;95.58;99050.03;5079044;28;20031;-50
2023/10/29 07:16:10;;;;;;;3.65;1.50;;;;;;;20.48;95.62;99058.66;5079025;28;20035;-52
2023/10/29 07:18:36;;;;;;;6.25;1.40;;;;;;;20.45;95.69;99056.56;5082194;28;20059;-53
2023/10/29 07:21:01;;;;;;;8.20;1.60;;;;;;;20.42;95.75;99060.78;5063912;28;20027;-50
2023/10/29 07:23:27;;;;;;;2.50;1.27;;;;;;;20.41;95.90;99072.94;5081816;28;20031;-48
2023/10/29 07:25:52;;;;;;;5.85;1.48;;;;;;;20.40;95.70;99076.03;5078895;28;21274;-45
2023/10/29 07:28:18;;;;;;;5.68;1.50;;;;;;;20.38;96.01;99075.53;5080800;28;20153;-46
2023/10/29 07:30:43;;;;;;;3.55;1.50;;;;;;;20.34;96.24;99069.91;5080618;28;20121;-47
2023/10/29 07:33:10;;;;;;;4.75;1.30;;;;;;;20.31;96.00;99081.59;5080981;28;20093;-47
2023/10/29 07:35:39;;;;;;;3.78;1.63;;;;;;;20.27;96.44;99088.88;5062692;28;20027;-48
2023/10/29 07:38:05;;;;;;;4.35;1.50;;;;;;;20.25;96.64;99082.94;5062395;28;20124;-47
2023/10/29 07:40:31;;;;;;;3.15;1.45;;;;;;;20.22;96.50;99095.41;5082417;28;20031;-50
2023/10/29 07:42:57;;;;;;;3.85;1.60;;;;;;;20.19;96.59;99090.56;5063880;28;20088;-47
2023/10/29 07:45:22;;;;;;;6.22;1.33;;;;;;;20.14;97.29;99083.31;5081213;28;20034;-50
2023/10/29 07:47:48;;;;;;;3.53;1.35;;;;;;;20.11;97.22;99078.50;5078355;28;20306;-54
2023/10/29 07:50:13;;;;;;;3.08;1.23;;;;;;;20.09;97.58;99093.72;5062284;28;20557;-51
2023/10/29 07:52:39;;;;;;;2.50;1.23;;;;;;;20.06;97.78;99097.13;5083353;28;21248;-48
2023/10/29 07:55:09;;;;;;;2.22;1.40;;;;;;;20.04;98.01;99089.22;5062842;28;20499;-47
2023/10/29 07:57:35;;;;;;;4.80;1.48;;;;;;;20.00;97.98;99102.81;5071791;28;20117;-49
2023/10/29 08:00:03;;;;;;;4.85;1.50;;;;;;;20.00;98.23;99110.25;5064312;28;20027;-48
2023/10/29 08:02:28;;;;;;;4.88;1.63;;;;;;;19.97;98.02;99119.16;5078349;28;20049;-46
2023/10/29 08:04:55;;;;;;;4.10;1.42;;;;;;;19.95;98.15;99130.50;5045205;28;20431;-47
2023/10/29 08:07:20;;;;;;;4.65;1.30;;;;;;;19.95;98.37;99132.44;5077665;28;20027;-48
2023/10/29 08:09:46;;;;;;;3.97;1.40;;;;;;;19.93;98.65;99132.78;5077394;28;20039;-47
2023/10/29 08:12:11;;;;;;;3.72;1.70;;;;;;;19.93;98.55;99151.22;5079719;28;20114;-48
2023/10/29 08:14:36;;;;;;;3.53;1.50;;;;;;;19.92;98.46;99157.84;5060725;28;20035;-47
2023/10/29 08:17:03;;;;;;;4.05;1.50;;;;;;;19.90;98.44;99152.66;5077783;28;20062;-47
2023/10/29 08:19:28;;;;;;;4.00;1.35;;;;;;;19.88;98.47;99161.25;5061244;28;20028;-47
2023/10/29 08:21:53;;;;;;;4.38;1.40;;;;;;;19.87;98.24;99139.59;5069125;28;20054;-51
2023/10/29 08:24:19;;;;;;;4.60;1.20;;;;;;;19.86;98.76;99154.47;5074695;28;20043;-48
2023/10/29 08:26:44;;;;;;;4.03;1.40;;;;;;;19.84;98.41;99151.25;5074201;28;20039;-52
2023/10/29 08:29:11;;;;;;;3.22;1.20;;;;;;;19.83;98.27;99155.13;5050419;28;20034;-50
2023/10/29 08:31:36;;;;;;;3.78;1.10;;;;;;;19.82;98.50;99150.75;5056693;28;20050;-49
2023/10/29 08:34:01;;;;;;;3.28;1.25;;;;;;;19.81;98.37;99151.88;5078520;28;20492;-49
2023/10/29 08:36:28;;;;;;;2.25;1.02;;;;;;;19.80;98.30;99156.56;5061473;28;20035;-51
2023/10/29 08:38:53;;;;;;;4.28;1.42;;;;;;;19.78;98.11;99163.53;5079044;28;20031;-46
2023/10/29 08:41:19;;;;;;;4.25;1.35;;;;;;;19.78;98.54;99174.50;5077623;28;20051;-53
2023/10/29 08:43:44;;;;;;;6.32;1.63;;;;;;;19.77;98.43;99170.97;5078878;28;20034;-49
2023/10/29 08:46:10;;;;;;;4.15;1.23;;;;;;;19.76;98.79;99185.84;5077736;28;20047;-50
2023/10/29 08:48:35;;;;;;;4.35;1.40;;;;;;;19.76;98.46;99179.56;5079166;28;20531;-52
2023/10/29 08:51:01;;;;;;;5.40;1.30;;;;;;;19.75;98.38;99202.69;5079242;28;20215;-51
2023/10/29 08:53:26;;;;;;;3.55;1.27;;;;;;;19.74;98.48;99218.34;5081958;28;20020;-52
2023/10/29 08:55:52;;;;;;;2.83;1.27;;;;;;;19.74;98.39;99223.84;5078999;28;20039;-51
2023/10/29 08:58:18;;;;;;;3.15;1.27;;;;;;;19.72;98.42;99213.19;5079687;28;20027;-53
2023/10/29 09:00:45;;;;;;;9.80;1.42;;;;;;;19.72;96.97;99226.13;5080122;28;20081;-50
2023/10/29 09:03:10;;;;;;;4.47;1.85;;;;;;;19.71;97.47;99227.25;5060846;28;20042;-48
2023/10/29 09:05:36;;;;;;;5.38;1.50;;;;;;;19.71;97.94;99224.50;5042928;28;20031;-46
2023/10/29 09:08:01;;;;;;;7.28;1.40;;;;;;;19.69;97.57;99229.53;5079706;28;20634;-52
2023/10/29 09:10:28;;;;;;;4.35;1.58;;;;;;;19.68;97.77;99236.97;5059846;28;21948;-48
2023/10/29 09:12:57;;;;;;;4.95;1.50;;;;;;;19.67;97.58;99237.31;5061268;28;20023;-49
2023/10/29 09:15:22;;;;;;;6.00;1.83;;;;;;;19.66;97.56;99239.22;5077286;28;20031;-49
2023/10/29 09:17:47;;;;;;;5.00;1.63;;;;;;;19.66;97.11;99243.94;5055989;28;20028;-48
2023/10/29 09:20:13;;;;;;;6.70;2.03;;;;;;;19.63;97.00;99237.16;5080795;28;20093;-53
2023/10/29 09:22:38;;;;;;;5.90;1.85;;;;;;;19.63;97.34;99236.31;5063789;28;20035;-50
2023/10/29 09:25:04;;;;;;;5.40;1.90;;;;;;;19.61;97.67;99233.91;5080651;28;20535;-45
2023/10/29 09:27:29;;;;;;;9.40;2.10;;;;;;;19.60;97.65;99243.28;5057677;28;20130;-50
2023/10/29 09:29:55;;;;;;;6.68;2.20;;;;;;;19.60;97.74;99229.53;5060480;28;20050;-46
2023/10/29 09:32:20;;;;;;;9.15;2.08;;;;;;;19.60;97.42;99246.03;5076888;28;20071;-51
2023/10/29 09:34:46;;;;;;;7.97;2.50;;;;;;;19.58;97.24;99233.75;5061552;28;20088;-46
2023/10/29 09:37:11;;;;;;;7.65;2.10;;;;;;;19.58;97.36;99237.28;5077912;28;20406;-47
2023/10/29 09:39:37;;;;;;;6.80;2.00;;;;;;;19.57;96.92;99246.69;5062139;28;20386;-49
2023/10/29 09:42:08;;;;;;;8.25;1.80;;;;;;;19.55;97.05;99243.47;5080275;28;20078;-51
2023/10/29 09:44:33;;;;;;;5.00;2.05;;;;;;;19.53;97.26;99249.28;5081936;28;20027;-50
2023/10/29 09:47:11;;;;;;;9.43;2.00;;;;;;;19.52;96.88;99244.91;5080763;28;20060;-51
2023/10/29 09:49:37;;;;;;;5.88;1.90;;;;;;;19.51;96.83;99229.56;5079670;28;20468;-49
2023/10/29 09:52:05;;;;;;;9.13;2.17;;;;;;;19.49;96.94;99253.00;5080007;28;20431;-52
2023/10/29 09:54:30;;;;;;;7.07;1.80;;;;;;;19.48;97.44;99248.63;5079505;28;20036;-50
2023/10/29 09:56:56;;;;;;;6.85;2.60;;;;;;;19.46;96.91;99239.91;5079412;28;21888;-51
2023/10/29 09:59:21;;;;;;;5.38;1.80;;;;;;;19.45;97.23;99244.59;5053382;28;20295;-45
2023/10/29 10:01:47;;;;;;;7.97;2.03;;;;;;;19.44;97.52;99222.97;5077794;28;20028;-50
2023/10/29 10:04:12;;;;;;;5.55;1.67;;;;;;;19.40;97.36;99218.09;5076866;28;20020;-50
2023/10/29 10:06:38;;;;;;;8.75;2.35;;;;;;;19.42;97.93;99216.97;5073903;28;20106;-42
2023/10/29 10:09:05;;;;;;;15.48;2.40;;;;;;;19.43;97.92;99218.59;5070722;28;20039;-40
2023/10/29 10:11:31;;;;;;;9.25;2.00;;;;;;;19.44;98.65;99218.25;5067796;28;20023;-45
2023/10/29 10:13:56;;;;;;;15.55;2.42;;;;;;;19.48;99.22;99215.66;5051321;28;20457;-42
2023/10/29 10:16:22;;;;;;;13.45;2.22;;;;;;;19.52;99.39;99227.59;5050981;28;20032;-43
2023/10/29 10:18:55;;;;;;;10.70;2.58;;;;;;;19.55;98.99;99230.50;5070119;28;20028;-44
2023/10/29 10:21:23;;;;;;;9.63;2.43;;;;;;;19.60;99.29;99237.00;5037985;28;20475;-39
2023/10/29 10:23:58;;;;;;;8.25;2.03;;;;;;;19.65;99.23;99228.56;5038475;28;20059;-48
2023/10/29 10:26:34;;;;;;;9.05;1.83;;;;;;;19.69;99.23;99229.53;5073114;28;20057;-43
2023/10/29 10:29:02;;;;;;;6.15;1.90;;;;;;;19.75;99.07;99227.41;5074378;28;20032;-48
2023/10/29 10:31:27;;;;;;;9.75;2.40;;;;;;;19.78;98.90;99227.56;5074878;28;20119;-51
2023/10/29 10:34:17;;;;;;;6.85;2.30;;;;;;;19.82;98.85;99239.50;5074827;28;20404;-54
2023/10/29 10:36:43;;;;;;;7.32;2.10;;;;;;;19.85;98.78;99277.38;5047016;28;20592;-56
2023/10/29 10:39:10;;;;;;;6.30;1.98;;;;;;;19.88;98.54;99287.72;5053520;28;20403;-57
2023/10/29 10:41:44;;;;;;;5.53;1.90;;;;;;;19.91;98.48;99291.75;5072850;28;20038;-49
2023/10/29 10:44:11;;;;;;;6.47;1.75;;;;;;;19.94;98.43;99291.09;5072260;28;20174;-54
2023/10/29 10:46:53;;;;;;;8.27;2.08;;;;;;;19.97;98.56;99284.94;5055416;28;20566;-58
2023/10/29 10:49:23;;;;;;;8.10;2.10;;;;;;;19.99;98.46;99299.19;5073698;28;20276;-57
2023/10/29 10:51:54;;;;;;;7.93;2.20;;;;;;;20.02;98.02;99298.53;5074432;28;20377;-57
2023/10/29 10:54:21;;;;;;;6.32;2.10;;;;;;;20.06;98.25;99300.63;5056938;28;20031;-46
2023/10/29 10:56:49;;;;;;;7.10;2.00;;;;;;;20.08;97.76;99306.59;5073383;28;20478;-46
2023/10/29 10:59:15;;;;;;;7.85;2.33;;;;;;;20.10;97.79;99309.81;5056106;28;20066;-46
2023/10/29 11:01:44;;;;;;;8.98;2.38;;;;;;;20.11;97.78;99306.75;5074309;28;20039;-57
2023/10/29 11:04:10;;;;;;;5.32;2.08;;;;;;;20.15;97.41;99301.41;5074476;28;20147;-47
2023/10/29 11:06:36;;;;;;;6.28;2.13;;;;;;;20.15;97.48;99287.66;5073118;28;21398;-44
2023/10/29 11:09:05;;;;;;;8.00;1.90;;;;;;;20.17;96.85;99290.88;5074131;28;20115;-42
2023/10/29 11:12:00;;;;;;;7.18;2.20;;;;;;;20.17;96.77;99285.38;5073610;28;20503;-46
2023/10/29 11:14:26;;;;;;;8.57;2.30;;;;;;;20.20;96.08;99270.97;5072636;28;20447;-51
2023/10/29 11:16:56;;;;;;;6.03;2.10;;;;;;;20.21;96.23;99283.59;5073975;28;20487;-41
2023/10/29 11:19:45;;;;;;;8.38;2.42;;;;;;;20.21;95.62;99275.34;5073747;28;20473;-37
2023/10/29 11:22:22;;;;;;;15.77;2.58;;;;;;;20.23;95.82;99286.81;5074003;27;20719;-45
2023/10/29 11:25:11;;;;;;;10.43;2.63;;;;;;;20.22;95.49;99278.88;5074841;28;20562;-43